sensor_id;sensor_type;location;lat;lon;timestamp;temperature;humidity
21928;DHT22;11128;51.096;17.190;2023-04-03T00:03:16;1.70;1.00
21928;DHT22;11128;51.096;17.190;2023-04-03T00:08:18;1.60;1.00
21928;DHT22;11128;51.096;17.190;2023-04-03T00:13:19;1.70;1.00
21928;DHT22;11128;51.096;17.190;2023-04-03T00:18:21;1.40;99.90
21928;DHT22;11128;51.096;17.190;2023-04-03T00:23:22;1.20;1.00
21928;DHT22;11128;51.096;17.190;2023-04-03T00:28:24;1.10;1.00
21928;DHT22;11128;51.096;17.190;2023-04-03T00:33:26;1.00;1.00
21928;DHT22;11128;51.096;17.190;2023-04-03T00:38:27;0.90;1.00
21928;DHT22;11128;51.096;17.190;2023-04-03T00:43:29;0.80;1.00
21928;DHT22;11128;51.096;17.190;2023-04-03T00:48:33;0.90;99.90
21928;DHT22;11128;51.096;17.190;2023-04-03T00:53:38;0.80;1.00
21928;DHT22;11128;51.096;17.190;2023-04-03T00:58:47;0.80;1.00
21928;DHT22;11128;51.096;17.190;2023-04-03T01:03:50;0.80;99.90
21928;DHT22;11128;51.096;17.190;2023-04-03T01:08:52;0.70;1.00
21928;DHT22;11128;51.096;17.190;2023-04-03T01:13:54;0.70;1.00
21928;DHT22;11128;51.096;17.190;2023-04-03T01:18:55;0.60;1.00
21928;DHT22;11128;51.096;17.190;2023-04-03T01:28:59;0.50;99.90
21928;DHT22;11128;51.096;17.190;2023-04-03T01:34:02;1.60;1.00
21928;DHT22;11128;51.096;17.190;2023-04-03T01:39:04;1.60;1.00
21928;DHT22;11128;51.096;17.190;2023-04-03T01:44:05;0.60;1.00
21928;DHT22;11128;51.096;17.190;2023-04-03T01:49:07;0.60;99.90
21928;DHT22;11128;51.096;17.190;2023-04-03T01:54:08;0.70;99.90
21928;DHT22;11128;51.096;17.190;2023-04-03T01:59:09;1.60;99.90
21928;DHT22;11128;51.096;17.190;2023-04-03T02:04:11;0.70;99.90
21928;DHT22;11128;51.096;17.190;2023-04-03T02:09:13;0.50;1.00
21928;DHT22;11128;51.096;17.190;2023-04-03T02:14:14;0.50;99.90
21928;DHT22;11128;51.096;17.190;2023-04-03T02:19:16;0.50;1.00
21928;DHT22;11128;51.096;17.190;2023-04-03T02:24:17;0.50;99.90
21928;DHT22;11128;51.096;17.190;2023-04-03T02:29:19;0.40;96.90
21928;DHT22;11128;51.096;17.190;2023-04-03T02:34:21;0.40;53.70
21928;DHT22;11128;51.096;17.190;2023-04-03T02:39:22;0.30;1.00
21928;DHT22;11128;51.096;17.190;2023-04-03T02:44:24;1.00;99.90
21928;DHT22;11128;51.096;17.190;2023-04-03T02:49:25;0.30;1.00
21928;DHT22;11128;51.096;17.190;2023-04-03T02:54:27;0.30;1.00
21928;DHT22;11128;51.096;17.190;2023-04-03T02:59:31;0.10;99.90
21928;DHT22;11128;51.096;17.190;2023-04-03T03:04:33;0.50;99.90
21928;DHT22;11128;51.096;17.190;2023-04-03T03:09:35;0.20;1.00
21928;DHT22;11128;51.096;17.190;2023-04-03T03:14:36;0.10;1.00
21928;DHT22;11128;51.096;17.190;2023-04-03T03:19:37;0.00;1.00
21928;DHT22;11128;51.096;17.190;2023-04-03T03:24:38;-0.10;1.00
21928;DHT22;11128;51.096;17.190;2023-04-03T03:29:40;0.00;99.90
21928;DHT22;11128;51.096;17.190;2023-04-03T03:34:41;-0.30;1.00
21928;DHT22;11128;51.096;17.190;2023-04-03T03:39:43;-0.30;1.00
21928;DHT22;11128;51.096;17.190;2023-04-03T03:44:44;-0.40;1.00
21928;DHT22;11128;51.096;17.190;2023-04-03T03:49:45;-0.40;99.90
21928;DHT22;11128;51.096;17.190;2023-04-03T03:54:47;-0.50;52.20
21928;DHT22;11128;51.096;17.190;2023-04-03T03:59:48;-0.40;99.90
21928;DHT22;11128;51.096;17.190;2023-04-03T04:04:50;-0.50;99.90
21928;DHT22;11128;51.096;17.190;2023-04-03T04:09:51;-0.50;99.90
21928;DHT22;11128;51.096;17.190;2023-04-03T04:14:52;-0.60;1.00
21928;DHT22;11128;51.096;17.190;2023-04-03T04:19:54;-0.60;1.00
21928;DHT22;11128;51.096;17.190;2023-04-03T04:24:55;1.10;1.00
21928;DHT22;11128;51.096;17.190;2023-04-03T04:29:56;-0.70;99.90
21928;DHT22;11128;51.096;17.190;2023-04-03T04:34:58;-0.70;99.90
21928;DHT22;11128;51.096;17.190;2023-04-03T04:39:59;-0.70;92.20
21928;DHT22;11128;51.096;17.190;2023-04-03T04:45:01;0.80;45.80
21928;DHT22;11128;51.096;17.190;2023-04-03T04:50:02;-0.70;99.90
21928;DHT22;11128;51.096;17.190;2023-04-03T04:55:04;-0.80;99.90
21928;DHT22;11128;51.096;17.190;2023-04-03T05:00:06;-0.80;1.00
21928;DHT22;11128;51.096;17.190;2023-04-03T05:05:08;-0.70;79.80
21928;DHT22;11128;51.096;17.190;2023-04-03T05:10:09;-0.60;1.00
21928;DHT22;11128;51.096;17.190;2023-04-03T05:15:11;0.60;1.00
21928;DHT22;11128;51.096;17.190;2023-04-03T05:20:13;-0.50;1.00
21928;DHT22;11128;51.096;17.190;2023-04-03T05:25:14;-0.50;1.00
21928;DHT22;11128;51.096;17.190;2023-04-03T05:30:17;-0.50;1.00
21928;DHT22;11128;51.096;17.190;2023-04-03T05:35:18;-0.40;1.00
21928;DHT22;11128;51.096;17.190;2023-04-03T05:40:20;-0.40;99.90
21928;DHT22;11128;51.096;17.190;2023-04-03T05:45:22;-0.30;1.00
21928;DHT22;11128;51.096;17.190;2023-04-03T05:50:24;-0.10;1.00
21928;DHT22;11128;51.096;17.190;2023-04-03T05:55:26;-0.10;99.90
21928;DHT22;11128;51.096;17.190;2023-04-03T06:00:28;0.10;1.00
21928;DHT22;11128;51.096;17.190;2023-04-03T06:05:30;0.20;1.00
21928;DHT22;11128;51.096;17.190;2023-04-03T06:10:31;0.50;1.00
21928;DHT22;11128;51.096;17.190;2023-04-03T06:15:33;0.50;1.00
21928;DHT22;11128;51.096;17.190;2023-04-03T06:20:35;0.60;99.90
21928;DHT22;11128;51.096;17.190;2023-04-03T06:25:36;1.40;1.00
21928;DHT22;11128;51.096;17.190;2023-04-03T06:30:37;0.90;1.00
21928;DHT22;11128;51.096;17.190;2023-04-03T06:35:39;1.10;56.60
21928;DHT22;11128;51.096;17.190;2023-04-03T06:40:40;1.80;99.90
21928;DHT22;11128;51.096;17.190;2023-04-03T06:45:42;1.30;99.90
21928;DHT22;11128;51.096;17.190;2023-04-03T06:50:43;1.50;1.00
21928;DHT22;11128;51.096;17.190;2023-04-03T06:55:45;1.80;99.90
21928;DHT22;11128;51.096;17.190;2023-04-03T07:00:46;2.60;1.00
21928;DHT22;11128;51.096;17.190;2023-04-03T07:05:48;3.10;1.00
21928;DHT22;11128;51.096;17.190;2023-04-03T07:10:49;2.80;1.00
21928;DHT22;11128;51.096;17.190;2023-04-03T07:15:51;2.40;99.90
21928;DHT22;11128;51.096;17.190;2023-04-03T07:20:52;2.90;99.90
21928;DHT22;11128;51.096;17.190;2023-04-03T07:25:54;3.30;1.00
21928;DHT22;11128;51.096;17.190;2023-04-03T07:31:05;3.80;1.00
21928;DHT22;11128;51.096;17.190;2023-04-03T07:36:09;4.00;1.00
21928;DHT22;11128;51.096;17.190;2023-04-03T07:41:18;3.90;1.00
21928;DHT22;11128;51.096;17.190;2023-04-03T07:46:21;4.00;1.00
21928;DHT22;11128;51.096;17.190;2023-04-03T07:51:22;3.90;1.00
21928;DHT22;11128;51.096;17.190;2023-04-03T07:56:24;4.20;1.00
21928;DHT22;11128;51.096;17.190;2023-04-03T08:01:26;4.60;99.90
21928;DHT22;11128;51.096;17.190;2023-04-03T08:06:27;4.90;99.90
21928;DHT22;11128;51.096;17.190;2023-04-03T08:11:31;5.30;99.90
21928;DHT22;11128;51.096;17.190;2023-04-03T08:16:32;5.90;99.90
21928;DHT22;11128;51.096;17.190;2023-04-03T08:21:34;6.10;99.90
21928;DHT22;11128;51.096;17.190;2023-04-03T08:26:36;6.60;99.90
21928;DHT22;11128;51.096;17.190;2023-04-03T08:31:38;6.60;99.90
21928;DHT22;11128;51.096;17.190;2023-04-03T08:36:39;6.40;99.90
21928;DHT22;11128;51.096;17.190;2023-04-03T08:41:44;6.20;99.90
21928;DHT22;11128;51.096;17.190;2023-04-03T08:52:18;6.00;99.90
21928;DHT22;11128;51.096;17.190;2023-04-03T08:57:30;6.00;99.90
21928;DHT22;11128;51.096;17.190;2023-04-03T09:02:43;6.30;99.90
21928;DHT22;11128;51.096;17.190;2023-04-03T09:07:49;5.80;99.90
21928;DHT22;11128;51.096;17.190;2023-04-03T09:18:22;5.70;99.90
21928;DHT22;11128;51.096;17.190;2023-04-03T09:28:39;6.60;99.90
21928;DHT22;11128;51.096;17.190;2023-04-03T09:33:41;6.50;99.90
21928;DHT22;11128;51.096;17.190;2023-04-03T09:38:42;7.40;99.90
21928;DHT22;11128;51.096;17.190;2023-04-03T09:43:53;7.60;99.90
21928;DHT22;11128;51.096;17.190;2023-04-03T09:49:04;7.80;99.90
21928;DHT22;11128;51.096;17.190;2023-04-03T09:59:27;10.30;93.20
21928;DHT22;11128;51.096;17.190;2023-04-03T10:04:39;8.90;71.30
21928;DHT22;11128;51.096;17.190;2023-04-03T10:09:55;9.20;59.70
21928;DHT22;11128;51.096;17.190;2023-04-03T10:14:59;10.20;72.20
21928;DHT22;11128;51.096;17.190;2023-04-03T10:46:09;8.40;20.20
21928;DHT22;11128;51.096;17.190;2023-04-03T10:51:29;7.70;14.80
21928;DHT22;11128;51.096;17.190;2023-04-03T13:28:09;12.20;1.00
21928;DHT22;11128;51.096;17.190;2023-04-03T13:33:22;12.90;1.00
21928;DHT22;11128;51.096;17.190;2023-04-03T13:38:27;12.50;1.00
21928;DHT22;11128;51.096;17.190;2023-04-03T13:43:33;10.90;1.00
21928;DHT22;11128;51.096;17.190;2023-04-03T13:48:38;9.60;1.00
21928;DHT22;11128;51.096;17.190;2023-04-03T15:04:18;8.30;1.00
21928;DHT22;11128;51.096;17.190;2023-04-03T15:09:25;9.20;1.00
21928;DHT22;11128;51.096;17.190;2023-04-03T15:14:28;9.10;1.00
21928;DHT22;11128;51.096;17.190;2023-04-03T15:19:35;7.80;1.00
21928;DHT22;11128;51.096;17.190;2023-04-03T15:24:37;7.00;1.00
21928;DHT22;11128;51.096;17.190;2023-04-03T15:29:40;6.70;1.00
21928;DHT22;11128;51.096;17.190;2023-04-03T15:34:43;6.70;1.00
21928;DHT22;11128;51.096;17.190;2023-04-03T15:39:44;6.70;1.00
21928;DHT22;11128;51.096;17.190;2023-04-03T15:44:46;6.50;1.00
21928;DHT22;11128;51.096;17.190;2023-04-03T15:49:47;6.30;1.00
21928;DHT22;11128;51.096;17.190;2023-04-03T15:54:49;6.10;1.00
21928;DHT22;11128;51.096;17.190;2023-04-03T15:59:51;5.80;1.00
21928;DHT22;11128;51.096;17.190;2023-04-03T16:04:54;5.60;1.00
21928;DHT22;11128;51.096;17.190;2023-04-03T16:09:56;5.70;1.00
21928;DHT22;11128;51.096;17.190;2023-04-03T16:14:58;5.20;1.00
21928;DHT22;11128;51.096;17.190;2023-04-03T16:19:59;5.00;1.00
21928;DHT22;11128;51.096;17.190;2023-04-03T16:25:01;5.00;1.00
21928;DHT22;11128;51.096;17.190;2023-04-03T16:30:03;4.80;1.00
21928;DHT22;11128;51.096;17.190;2023-04-03T16:35:06;4.70;1.00
21928;DHT22;11128;51.096;17.190;2023-04-03T16:40:09;4.60;1.00
21928;DHT22;11128;51.096;17.190;2023-04-03T16:45:11;4.50;1.00
21928;DHT22;11128;51.096;17.190;2023-04-03T16:50:12;4.50;1.00
21928;DHT22;11128;51.096;17.190;2023-04-03T16:55:14;4.40;1.00
21928;DHT22;11128;51.096;17.190;2023-04-03T17:00:16;4.40;1.00
21928;DHT22;11128;51.096;17.190;2023-04-03T17:05:18;4.40;1.00
21928;DHT22;11128;51.096;17.190;2023-04-03T17:10:19;4.40;1.00
21928;DHT22;11128;51.096;17.190;2023-04-03T17:15:21;4.30;1.00
21928;DHT22;11128;51.096;17.190;2023-04-03T17:20:22;4.20;1.00
21928;DHT22;11128;51.096;17.190;2023-04-03T17:25:24;4.10;1.00
21928;DHT22;11128;51.096;17.190;2023-04-03T17:30:25;4.00;1.00
21928;DHT22;11128;51.096;17.190;2023-04-03T17:35:27;3.90;1.00
21928;DHT22;11128;51.096;17.190;2023-04-03T17:40:29;4.60;1.00
21928;DHT22;11128;51.096;17.190;2023-04-03T17:45:31;3.80;1.00
21928;DHT22;11128;51.096;17.190;2023-04-03T17:50:32;3.90;1.00
21928;DHT22;11128;51.096;17.190;2023-04-03T17:55:39;4.60;1.00
21928;DHT22;11128;51.096;17.190;2023-04-03T18:00:40;3.80;1.00
21928;DHT22;11128;51.096;17.190;2023-04-03T18:05:42;3.70;1.00
21928;DHT22;11128;51.096;17.190;2023-04-03T18:10:43;3.70;1.00
21928;DHT22;11128;51.096;17.190;2023-04-03T18:15:45;3.60;1.00
21928;DHT22;11128;51.096;17.190;2023-04-03T18:20:46;3.50;1.00
21928;DHT22;11128;51.096;17.190;2023-04-03T18:25:48;3.50;1.00
21928;DHT22;11128;51.096;17.190;2023-04-03T18:30:49;3.60;1.00
21928;DHT22;11128;51.096;17.190;2023-04-03T18:35:51;3.90;1.00
21928;DHT22;11128;51.096;17.190;2023-04-03T18:40:52;3.90;1.00
21928;DHT22;11128;51.096;17.190;2023-04-03T18:45:54;3.40;1.00
21928;DHT22;11128;51.096;17.190;2023-04-03T18:50:56;3.30;1.00
21928;DHT22;11128;51.096;17.190;2023-04-03T18:55:57;3.30;1.00
21928;DHT22;11128;51.096;17.190;2023-04-03T19:00:59;3.30;1.00
21928;DHT22;11128;51.096;17.190;2023-04-03T19:06:02;3.30;9.90
21928;DHT22;11128;51.096;17.190;2023-04-03T19:11:04;3.20;14.20
21928;DHT22;11128;51.096;17.190;2023-04-03T19:16:05;3.20;36.80
21928;DHT22;11128;51.096;17.190;2023-04-03T19:21:07;3.20;40.30
21928;DHT22;11128;51.096;17.190;2023-04-03T19:26:11;3.10;51.40
21928;DHT22;11128;51.096;17.190;2023-04-03T19:31:18;3.10;56.30
21928;DHT22;11128;51.096;17.190;2023-04-03T19:36:20;3.00;69.40
21928;DHT22;11128;51.096;17.190;2023-04-03T19:41:23;3.00;85.60
21928;DHT22;11128;51.096;17.190;2023-04-03T19:46:27;3.00;96.70
21928;DHT22;11128;51.096;17.190;2023-04-03T19:51:29;2.90;99.90
21928;DHT22;11128;51.096;17.190;2023-04-03T19:56:30;2.90;99.90
21928;DHT22;11128;51.096;17.190;2023-04-03T20:01:32;2.90;99.90
21928;DHT22;11128;51.096;17.190;2023-04-03T20:06:34;2.90;99.90
21928;DHT22;11128;51.096;17.190;2023-04-03T20:11:37;2.90;99.90
21928;DHT22;11128;51.096;17.190;2023-04-03T20:16:40;2.90;99.90
21928;DHT22;11128;51.096;17.190;2023-04-03T20:21:42;2.80;99.90
21928;DHT22;11128;51.096;17.190;2023-04-03T20:26:43;3.50;99.90
21928;DHT22;11128;51.096;17.190;2023-04-03T20:31:47;4.20;99.90
21928;DHT22;11128;51.096;17.190;2023-04-03T20:36:48;3.50;99.90
21928;DHT22;11128;51.096;17.190;2023-04-03T20:41:49;2.60;99.90
21928;DHT22;11128;51.096;17.190;2023-04-03T20:46:51;2.60;99.90
21928;DHT22;11128;51.096;17.190;2023-04-03T20:51:52;2.40;99.90
21928;DHT22;11128;51.096;17.190;2023-04-03T20:56:54;2.20;99.90
21928;DHT22;11128;51.096;17.190;2023-04-03T21:01:56;2.60;99.90
21928;DHT22;11128;51.096;17.190;2023-04-03T21:23:26;1.60;99.90
21928;DHT22;11128;51.096;17.190;2023-04-03T21:28:28;1.80;99.90
21928;DHT22;11128;51.096;17.190;2023-04-03T21:33:29;1.30;99.90
21928;DHT22;11128;51.096;17.190;2023-04-03T21:38:31;1.40;99.90
21928;DHT22;11128;51.096;17.190;2023-04-03T21:43:35;0.50;1.00
21928;DHT22;11128;51.096;17.190;2023-04-03T21:48:36;1.30;99.90
21928;DHT22;11128;51.096;17.190;2023-04-03T21:53:37;0.80;99.90
21928;DHT22;11128;51.096;17.190;2023-04-03T21:58:39;1.10;99.90
21928;DHT22;11128;51.096;17.190;2023-04-03T22:03:41;0.60;1.00
21928;DHT22;11128;51.096;17.190;2023-04-03T22:08:43;0.50;99.90
21928;DHT22;11128;51.096;17.190;2023-04-03T22:13:45;0.40;99.90
21928;DHT22;11128;51.096;17.190;2023-04-03T22:18:46;0.30;99.90
21928;DHT22;11128;51.096;17.190;2023-04-03T22:23:48;-0.10;1.00
21928;DHT22;11128;51.096;17.190;2023-04-03T22:28:49;0.00;1.00
21928;DHT22;11128;51.096;17.190;2023-04-03T22:33:50;-0.10;1.00
21928;DHT22;11128;51.096;17.190;2023-04-03T22:38:52;-0.20;1.00
21928;DHT22;11128;51.096;17.190;2023-04-03T22:43:55;-0.30;1.00
21928;DHT22;11128;51.096;17.190;2023-04-03T22:48:57;-0.30;1.00
21928;DHT22;11128;51.096;17.190;2023-04-03T22:53:59;-0.40;1.00
21928;DHT22;11128;51.096;17.190;2023-04-03T22:59:00;-0.40;1.00
21928;DHT22;11128;51.096;17.190;2023-04-03T23:04:01;-0.40;1.00
21928;DHT22;11128;51.096;17.190;2023-04-03T23:09:03;-0.40;1.60
21928;DHT22;11128;51.096;17.190;2023-04-03T23:14:04;-0.50;1.00
21928;DHT22;11128;51.096;17.190;2023-04-03T23:19:06;-0.50;1.00
21928;DHT22;11128;51.096;17.190;2023-04-03T23:24:08;-0.60;1.00
21928;DHT22;11128;51.096;17.190;2023-04-03T23:29:10;-0.70;1.00
21928;DHT22;11128;51.096;17.190;2023-04-03T23:34:11;-0.70;1.00
21928;DHT22;11128;51.096;17.190;2023-04-03T23:39:12;-0.70;1.00
21928;DHT22;11128;51.096;17.190;2023-04-03T23:44:14;-0.70;1.00
21928;DHT22;11128;51.096;17.190;2023-04-03T23:49:15;-0.80;1.00
21928;DHT22;11128;51.096;17.190;2023-04-03T23:54:17;-0.80;1.00
21928;DHT22;11128;51.096;17.190;2023-04-03T23:59:18;-0.80;1.00
